sensor_id;sensor_type;location;lat;lon;timestamp;P1;durP1;ratioP1;P2;durP2;ratioP2
19891;SDS011;10108;50.142;8.724;2023-09-30T00:01:26;11.52;;;4.55;;
19891;SDS011;10108;50.142;8.724;2023-09-30T00:03:53;13.38;;;5.40;;
19891;SDS011;10108;50.142;8.724;2023-09-30T00:06:19;13.45;;;5.20;;
19891;SDS011;10108;50.142;8.724;2023-09-30T00:08:46;14.40;;;5.00;;
19891;SDS011;10108;50.142;8.724;2023-09-30T00:11:15;13.48;;;4.97;;
19891;SDS011;10108;50.142;8.724;2023-09-30T00:13:42;14.45;;;5.25;;
19891;SDS011;10108;50.142;8.724;2023-09-30T00:16:09;11.90;;;5.47;;
19891;SDS011;10108;50.142;8.724;2023-09-30T00:18:35;12.98;;;5.68;;
19891;SDS011;10108;50.142;8.724;2023-09-30T00:21:02;14.85;;;5.45;;
19891;SDS011;10108;50.142;8.724;2023-09-30T00:23:28;15.70;;;5.22;;
19891;SDS011;10108;50.142;8.724;2023-09-30T00:25:55;14.02;;;5.15;;
19891;SDS011;10108;50.142;8.724;2023-09-30T00:28:21;12.57;;;5.20;;
19891;SDS011;10108;50.142;8.724;2023-09-30T00:30:48;18.67;;;5.60;;
19891;SDS011;10108;50.142;8.724;2023-09-30T00:33:15;13.75;;;5.03;;
19891;SDS011;10108;50.142;8.724;2023-09-30T00:35:42;17.40;;;5.38;;
19891;SDS011;10108;50.142;8.724;2023-09-30T00:38:08;16.30;;;5.50;;
19891;SDS011;10108;50.142;8.724;2023-09-30T00:40:35;13.07;;;4.90;;
19891;SDS011;10108;50.142;8.724;2023-09-30T00:43:02;14.52;;;5.03;;
19891;SDS011;10108;50.142;8.724;2023-09-30T00:45:29;12.30;;;5.30;;
19891;SDS011;10108;50.142;8.724;2023-09-30T00:47:56;11.93;;;4.93;;
19891;SDS011;10108;50.142;8.724;2023-09-30T00:50:22;16.50;;;5.30;;
19891;SDS011;10108;50.142;8.724;2023-09-30T00:52:49;13.43;;;4.80;;
19891;SDS011;10108;50.142;8.724;2023-09-30T00:55:16;13.43;;;4.80;;
19891;SDS011;10108;50.142;8.724;2023-09-30T00:57:43;12.32;;;5.30;;
19891;SDS011;10108;50.142;8.724;2023-09-30T01:00:10;13.05;;;5.15;;
19891;SDS011;10108;50.142;8.724;2023-09-30T01:02:40;12.98;;;5.22;;
19891;SDS011;10108;50.142;8.724;2023-09-30T01:05:07;13.80;;;5.05;;
19891;SDS011;10108;50.142;8.724;2023-09-30T01:07:35;15.35;;;5.18;;
19891;SDS011;10108;50.142;8.724;2023-09-30T01:10:02;12.60;;;4.80;;
19891;SDS011;10108;50.142;8.724;2023-09-30T01:12:29;18.23;;;5.20;;
19891;SDS011;10108;50.142;8.724;2023-09-30T01:14:58;13.32;;;5.20;;
19891;SDS011;10108;50.142;8.724;2023-09-30T01:17:25;16.70;;;5.88;;
19891;SDS011;10108;50.142;8.724;2023-09-30T01:19:54;13.85;;;4.93;;
19891;SDS011;10108;50.142;8.724;2023-09-30T01:22:21;15.05;;;5.22;;
19891;SDS011;10108;50.142;8.724;2023-09-30T01:24:47;13.60;;;5.13;;
19891;SDS011;10108;50.142;8.724;2023-09-30T01:27:14;15.18;;;5.97;;
19891;SDS011;10108;50.142;8.724;2023-09-30T01:29:44;15.80;;;4.75;;
19891;SDS011;10108;50.142;8.724;2023-09-30T01:32:13;13.05;;;5.18;;
19891;SDS011;10108;50.142;8.724;2023-09-30T01:34:41;15.25;;;5.68;;
19891;SDS011;10108;50.142;8.724;2023-09-30T01:37:09;13.02;;;5.10;;
19891;SDS011;10108;50.142;8.724;2023-09-30T01:39:36;15.40;;;5.20;;
19891;SDS011;10108;50.142;8.724;2023-09-30T01:42:02;13.82;;;5.57;;
19891;SDS011;10108;50.142;8.724;2023-09-30T01:44:32;16.02;;;5.03;;
19891;SDS011;10108;50.142;8.724;2023-09-30T01:46:58;12.27;;;5.30;;
19891;SDS011;10108;50.142;8.724;2023-09-30T01:49:25;10.38;;;4.75;;
19891;SDS011;10108;50.142;8.724;2023-09-30T01:51:54;13.98;;;5.32;;
19891;SDS011;10108;50.142;8.724;2023-09-30T01:54:20;12.73;;;5.63;;
19891;SDS011;10108;50.142;8.724;2023-09-30T01:56:47;13.93;;;5.30;;
19891;SDS011;10108;50.142;8.724;2023-09-30T01:59:13;12.52;;;5.82;;
19891;SDS011;10108;50.142;8.724;2023-09-30T02:01:39;11.75;;;5.32;;
19891;SDS011;10108;50.142;8.724;2023-09-30T02:04:06;16.65;;;5.28;;
19891;SDS011;10108;50.142;8.724;2023-09-30T02:06:32;11.75;;;5.35;;
19891;SDS011;10108;50.142;8.724;2023-09-30T02:09:00;13.50;;;5.72;;
19891;SDS011;10108;50.142;8.724;2023-09-30T02:11:26;13.57;;;5.32;;
19891;SDS011;10108;50.142;8.724;2023-09-30T02:13:53;15.75;;;5.53;;
19891;SDS011;10108;50.142;8.724;2023-09-30T02:16:20;16.27;;;5.80;;
19891;SDS011;10108;50.142;8.724;2023-09-30T02:18:48;14.55;;;6.10;;
19891;SDS011;10108;50.142;8.724;2023-09-30T02:21:16;12.65;;;5.68;;
19891;SDS011;10108;50.142;8.724;2023-09-30T02:23:42;11.75;;;5.60;;
19891;SDS011;10108;50.142;8.724;2023-09-30T02:26:16;13.23;;;6.10;;
19891;SDS011;10108;50.142;8.724;2023-09-30T02:28:43;14.02;;;6.20;;
19891;SDS011;10108;50.142;8.724;2023-09-30T02:31:11;14.48;;;5.75;;
19891;SDS011;10108;50.142;8.724;2023-09-30T02:33:38;14.75;;;6.18;;
19891;SDS011;10108;50.142;8.724;2023-09-30T02:36:08;14.88;;;5.82;;
19891;SDS011;10108;50.142;8.724;2023-09-30T02:38:35;16.13;;;5.55;;
19891;SDS011;10108;50.142;8.724;2023-09-30T02:41:04;13.90;;;5.50;;
19891;SDS011;10108;50.142;8.724;2023-09-30T02:43:31;14.45;;;5.60;;
19891;SDS011;10108;50.142;8.724;2023-09-30T02:45:58;15.55;;;5.70;;
19891;SDS011;10108;50.142;8.724;2023-09-30T02:48:24;15.30;;;5.40;;
19891;SDS011;10108;50.142;8.724;2023-09-30T02:50:52;14.27;;;5.43;;
19891;SDS011;10108;50.142;8.724;2023-09-30T02:53:20;13.32;;;4.65;;
19891;SDS011;10108;50.142;8.724;2023-09-30T02:55:47;14.82;;;5.07;;
19891;SDS011;10108;50.142;8.724;2023-09-30T02:58:15;16.10;;;5.38;;
19891;SDS011;10108;50.142;8.724;2023-09-30T03:00:47;12.30;;;4.90;;
19891;SDS011;10108;50.142;8.724;2023-09-30T03:03:15;14.88;;;5.30;;
19891;SDS011;10108;50.142;8.724;2023-09-30T03:05:41;15.45;;;5.50;;
19891;SDS011;10108;50.142;8.724;2023-09-30T03:08:08;15.68;;;5.32;;
19891;SDS011;10108;50.142;8.724;2023-09-30T03:10:35;17.92;;;5.97;;
19891;SDS011;10108;50.142;8.724;2023-09-30T03:13:06;13.02;;;5.28;;
19891;SDS011;10108;50.142;8.724;2023-09-30T03:15:34;11.18;;;4.85;;
19891;SDS011;10108;50.142;8.724;2023-09-30T03:18:01;13.43;;;5.50;;
19891;SDS011;10108;50.142;8.724;2023-09-30T03:20:28;15.20;;;4.65;;
19891;SDS011;10108;50.142;8.724;2023-09-30T03:22:56;15.40;;;5.15;;
19891;SDS011;10108;50.142;8.724;2023-09-30T03:25:23;10.88;;;4.95;;
19891;SDS011;10108;50.142;8.724;2023-09-30T03:27:49;13.35;;;5.53;;
19891;SDS011;10108;50.142;8.724;2023-09-30T03:30:17;17.48;;;5.38;;
19891;SDS011;10108;50.142;8.724;2023-09-30T03:32:45;11.43;;;5.03;;
19891;SDS011;10108;50.142;8.724;2023-09-30T03:35:12;12.65;;;5.22;;
19891;SDS011;10108;50.142;8.724;2023-09-30T03:37:46;11.63;;;5.40;;
19891;SDS011;10108;50.142;8.724;2023-09-30T03:40:12;12.75;;;5.13;;
19891;SDS011;10108;50.142;8.724;2023-09-30T03:42:46;11.60;;;4.93;;
19891;SDS011;10108;50.142;8.724;2023-09-30T03:45:16;12.35;;;5.28;;
19891;SDS011;10108;50.142;8.724;2023-09-30T03:47:43;12.80;;;5.15;;
19891;SDS011;10108;50.142;8.724;2023-09-30T03:50:11;13.10;;;5.38;;
19891;SDS011;10108;50.142;8.724;2023-09-30T03:52:40;12.88;;;5.43;;
19891;SDS011;10108;50.142;8.724;2023-09-30T03:55:13;16.65;;;5.70;;
19891;SDS011;10108;50.142;8.724;2023-09-30T03:57:41;14.02;;;5.65;;
19891;SDS011;10108;50.142;8.724;2023-09-30T04:00:08;13.93;;;5.38;;
19891;SDS011;10108;50.142;8.724;2023-09-30T04:02:39;14.75;;;5.15;;
19891;SDS011;10108;50.142;8.724;2023-09-30T04:05:08;15.43;;;5.50;;
19891;SDS011;10108;50.142;8.724;2023-09-30T04:07:37;13.82;;;5.28;;
19891;SDS011;10108;50.142;8.724;2023-09-30T04:10:03;12.90;;;5.50;;
19891;SDS011;10108;50.142;8.724;2023-09-30T04:12:30;13.45;;;5.35;;
19891;SDS011;10108;50.142;8.724;2023-09-30T04:14:58;15.30;;;6.22;;
19891;SDS011;10108;50.142;8.724;2023-09-30T04:17:24;16.02;;;6.30;;
19891;SDS011;10108;50.142;8.724;2023-09-30T04:19:52;15.75;;;5.75;;
19891;SDS011;10108;50.142;8.724;2023-09-30T04:22:19;14.32;;;5.55;;
19891;SDS011;10108;50.142;8.724;2023-09-30T04:24:46;15.85;;;5.38;;
19891;SDS011;10108;50.142;8.724;2023-09-30T04:27:16;14.60;;;5.72;;
19891;SDS011;10108;50.142;8.724;2023-09-30T04:29:43;14.20;;;5.45;;
19891;SDS011;10108;50.142;8.724;2023-09-30T04:32:09;14.30;;;5.45;;
19891;SDS011;10108;50.142;8.724;2023-09-30T04:34:36;16.55;;;5.97;;
19891;SDS011;10108;50.142;8.724;2023-09-30T04:37:02;17.33;;;5.95;;
19891;SDS011;10108;50.142;8.724;2023-09-30T04:39:29;14.20;;;5.80;;
19891;SDS011;10108;50.142;8.724;2023-09-30T04:42:00;15.85;;;5.60;;
19891;SDS011;10108;50.142;8.724;2023-09-30T04:44:26;16.25;;;5.70;;
19891;SDS011;10108;50.142;8.724;2023-09-30T04:46:54;15.10;;;5.93;;
19891;SDS011;10108;50.142;8.724;2023-09-30T04:49:21;16.38;;;5.75;;
19891;SDS011;10108;50.142;8.724;2023-09-30T04:51:49;16.30;;;5.80;;
19891;SDS011;10108;50.142;8.724;2023-09-30T04:54:15;13.77;;;5.57;;
19891;SDS011;10108;50.142;8.724;2023-09-30T04:56:41;13.60;;;6.13;;
19891;SDS011;10108;50.142;8.724;2023-09-30T04:59:08;14.63;;;5.47;;
19891;SDS011;10108;50.142;8.724;2023-09-30T05:01:34;16.27;;;5.80;;
19891;SDS011;10108;50.142;8.724;2023-09-30T05:04:01;15.10;;;5.65;;
19891;SDS011;10108;50.142;8.724;2023-09-30T05:06:28;15.48;;;6.50;;
19891;SDS011;10108;50.142;8.724;2023-09-30T05:08:54;17.55;;;6.28;;
19891;SDS011;10108;50.142;8.724;2023-09-30T05:11:21;17.15;;;5.50;;
19891;SDS011;10108;50.142;8.724;2023-09-30T05:13:47;13.18;;;5.55;;
19891;SDS011;10108;50.142;8.724;2023-09-30T05:16:14;15.57;;;5.70;;
19891;SDS011;10108;50.142;8.724;2023-09-30T05:18:41;14.30;;;5.93;;
19891;SDS011;10108;50.142;8.724;2023-09-30T05:21:08;15.30;;;5.63;;
19891;SDS011;10108;50.142;8.724;2023-09-30T05:23:36;16.45;;;5.95;;
19891;SDS011;10108;50.142;8.724;2023-09-30T05:26:03;12.07;;;5.70;;
19891;SDS011;10108;50.142;8.724;2023-09-30T05:28:30;15.10;;;5.68;;
19891;SDS011;10108;50.142;8.724;2023-09-30T05:30:57;16.52;;;6.28;;
19891;SDS011;10108;50.142;8.724;2023-09-30T05:33:23;12.25;;;5.68;;
19891;SDS011;10108;50.142;8.724;2023-09-30T05:35:49;14.77;;;6.13;;
19891;SDS011;10108;50.142;8.724;2023-09-30T05:38:16;15.40;;;6.22;;
19891;SDS011;10108;50.142;8.724;2023-09-30T05:40:45;19.25;;;6.50;;
19891;SDS011;10108;50.142;8.724;2023-09-30T05:43:11;16.83;;;6.38;;
19891;SDS011;10108;50.142;8.724;2023-09-30T05:45:40;13.80;;;5.82;;
19891;SDS011;10108;50.142;8.724;2023-09-30T05:48:15;15.75;;;6.07;;
19891;SDS011;10108;50.142;8.724;2023-09-30T05:50:41;15.32;;;6.18;;
19891;SDS011;10108;50.142;8.724;2023-09-30T05:53:09;17.45;;;6.25;;
19891;SDS011;10108;50.142;8.724;2023-09-30T05:55:36;15.98;;;6.82;;
19891;SDS011;10108;50.142;8.724;2023-09-30T05:58:03;18.15;;;7.00;;
19891;SDS011;10108;50.142;8.724;2023-09-30T06:00:31;19.58;;;6.15;;
19891;SDS011;10108;50.142;8.724;2023-09-30T06:03:01;15.02;;;6.30;;
19891;SDS011;10108;50.142;8.724;2023-09-30T06:05:29;15.70;;;6.53;;
19891;SDS011;10108;50.142;8.724;2023-09-30T06:07:57;16.15;;;6.70;;
19891;SDS011;10108;50.142;8.724;2023-09-30T06:10:23;15.95;;;6.85;;
19891;SDS011;10108;50.142;8.724;2023-09-30T06:12:51;14.60;;;6.60;;
19891;SDS011;10108;50.142;8.724;2023-09-30T06:15:23;13.55;;;6.13;;
19891;SDS011;10108;50.142;8.724;2023-09-30T06:17:51;16.65;;;6.13;;
19891;SDS011;10108;50.142;8.724;2023-09-30T06:20:18;17.35;;;6.78;;
19891;SDS011;10108;50.142;8.724;2023-09-30T06:22:45;18.15;;;7.28;;
19891;SDS011;10108;50.142;8.724;2023-09-30T06:25:14;17.48;;;6.80;;
19891;SDS011;10108;50.142;8.724;2023-09-30T06:27:44;18.10;;;7.13;;
19891;SDS011;10108;50.142;8.724;2023-09-30T06:30:11;18.92;;;7.25;;
19891;SDS011;10108;50.142;8.724;2023-09-30T06:32:39;16.83;;;6.78;;
19891;SDS011;10108;50.142;8.724;2023-09-30T06:35:06;18.52;;;7.32;;
19891;SDS011;10108;50.142;8.724;2023-09-30T06:37:38;15.73;;;6.70;;
19891;SDS011;10108;50.142;8.724;2023-09-30T06:40:06;18.70;;;6.72;;
19891;SDS011;10108;50.142;8.724;2023-09-30T06:42:34;19.58;;;7.50;;
19891;SDS011;10108;50.142;8.724;2023-09-30T06:45:01;15.32;;;6.63;;
19891;SDS011;10108;50.142;8.724;2023-09-30T06:47:34;15.07;;;7.35;;
19891;SDS011;10108;50.142;8.724;2023-09-30T06:50:07;17.25;;;7.22;;
19891;SDS011;10108;50.142;8.724;2023-09-30T06:52:35;21.08;;;8.05;;
19891;SDS011;10108;50.142;8.724;2023-09-30T06:55:02;17.13;;;6.93;;
19891;SDS011;10108;50.142;8.724;2023-09-30T06:57:36;15.00;;;7.30;;
19891;SDS011;10108;50.142;8.724;2023-09-30T07:02:34;17.67;;;7.57;;
19891;SDS011;10108;50.142;8.724;2023-09-30T07:05:11;14.95;;;6.45;;
19891;SDS011;10108;50.142;8.724;2023-09-30T07:07:38;18.35;;;7.78;;
19891;SDS011;10108;50.142;8.724;2023-09-30T07:10:05;20.10;;;7.40;;
19891;SDS011;10108;50.142;8.724;2023-09-30T07:12:32;15.48;;;7.15;;
19891;SDS011;10108;50.142;8.724;2023-09-30T07:15:01;15.75;;;7.63;;
19891;SDS011;10108;50.142;8.724;2023-09-30T07:17:28;16.98;;;7.32;;
19891;SDS011;10108;50.142;8.724;2023-09-30T07:19:55;15.60;;;7.78;;
19891;SDS011;10108;50.142;8.724;2023-09-30T07:22:22;19.85;;;7.78;;
19891;SDS011;10108;50.142;8.724;2023-09-30T07:24:48;17.00;;;7.63;;
19891;SDS011;10108;50.142;8.724;2023-09-30T07:27:15;17.48;;;7.50;;
19891;SDS011;10108;50.142;8.724;2023-09-30T07:29:43;18.73;;;7.78;;
19891;SDS011;10108;50.142;8.724;2023-09-30T07:32:09;17.25;;;7.57;;
19891;SDS011;10108;50.142;8.724;2023-09-30T07:34:36;20.00;;;7.05;;
19891;SDS011;10108;50.142;8.724;2023-09-30T07:37:02;20.52;;;7.18;;
19891;SDS011;10108;50.142;8.724;2023-09-30T07:39:29;16.27;;;6.88;;
19891;SDS011;10108;50.142;8.724;2023-09-30T07:41:56;14.48;;;6.53;;
19891;SDS011;10108;50.142;8.724;2023-09-30T07:44:22;16.63;;;6.43;;
19891;SDS011;10108;50.142;8.724;2023-09-30T07:46:49;12.35;;;5.78;;
19891;SDS011;10108;50.142;8.724;2023-09-30T07:49:15;18.38;;;6.88;;
19891;SDS011;10108;50.142;8.724;2023-09-30T07:51:42;16.02;;;6.20;;
19891;SDS011;10108;50.142;8.724;2023-09-30T07:54:08;16.65;;;6.30;;
19891;SDS011;10108;50.142;8.724;2023-09-30T07:56:35;15.88;;;5.50;;
19891;SDS011;10108;50.142;8.724;2023-09-30T07:59:01;13.00;;;5.63;;
19891;SDS011;10108;50.142;8.724;2023-09-30T08:01:28;14.85;;;5.65;;
19891;SDS011;10108;50.142;8.724;2023-09-30T08:03:55;14.68;;;5.65;;
19891;SDS011;10108;50.142;8.724;2023-09-30T08:06:22;16.63;;;6.10;;
19891;SDS011;10108;50.142;8.724;2023-09-30T08:08:49;15.15;;;5.30;;
19891;SDS011;10108;50.142;8.724;2023-09-30T08:11:15;14.23;;;5.35;;
19891;SDS011;10108;50.142;8.724;2023-09-30T08:13:43;15.52;;;5.65;;
19891;SDS011;10108;50.142;8.724;2023-09-30T08:16:13;15.35;;;5.70;;
19891;SDS011;10108;50.142;8.724;2023-09-30T08:18:51;15.73;;;5.80;;
19891;SDS011;10108;50.142;8.724;2023-09-30T08:21:19;17.70;;;6.20;;
19891;SDS011;10108;50.142;8.724;2023-09-30T08:23:47;14.45;;;5.60;;
19891;SDS011;10108;50.142;8.724;2023-09-30T08:26:22;17.83;;;5.88;;
19891;SDS011;10108;50.142;8.724;2023-09-30T08:28:48;16.95;;;5.43;;
19891;SDS011;10108;50.142;8.724;2023-09-30T08:31:15;13.48;;;5.40;;
19891;SDS011;10108;50.142;8.724;2023-09-30T08:33:42;15.07;;;5.40;;
19891;SDS011;10108;50.142;8.724;2023-09-30T08:36:11;10.70;;;4.80;;
19891;SDS011;10108;50.142;8.724;2023-09-30T08:38:38;15.02;;;5.95;;
19891;SDS011;10108;50.142;8.724;2023-09-30T08:41:05;15.65;;;5.10;;
19891;SDS011;10108;50.142;8.724;2023-09-30T08:43:37;16.33;;;6.10;;
19891;SDS011;10108;50.142;8.724;2023-09-30T08:46:07;15.77;;;6.10;;
19891;SDS011;10108;50.142;8.724;2023-09-30T08:48:33;14.93;;;5.75;;
19891;SDS011;10108;50.142;8.724;2023-09-30T08:51:00;17.83;;;5.70;;
19891;SDS011;10108;50.142;8.724;2023-09-30T08:53:28;16.02;;;5.38;;
19891;SDS011;10108;50.142;8.724;2023-09-30T08:55:55;14.45;;;5.38;;
19891;SDS011;10108;50.142;8.724;2023-09-30T08:58:32;16.83;;;5.40;;
19891;SDS011;10108;50.142;8.724;2023-09-30T09:00:59;17.05;;;5.50;;
19891;SDS011;10108;50.142;8.724;2023-09-30T09:03:27;15.55;;;5.78;;
19891;SDS011;10108;50.142;8.724;2023-09-30T09:05:55;13.00;;;5.60;;
19891;SDS011;10108;50.142;8.724;2023-09-30T09:08:22;13.05;;;5.53;;
19891;SDS011;10108;50.142;8.724;2023-09-30T09:10:59;16.88;;;5.90;;
19891;SDS011;10108;50.142;8.724;2023-09-30T09:13:26;19.77;;;5.95;;
19891;SDS011;10108;50.142;8.724;2023-09-30T09:16:08;17.38;;;5.85;;
19891;SDS011;10108;50.142;8.724;2023-09-30T09:18:35;16.73;;;5.97;;
19891;SDS011;10108;50.142;8.724;2023-09-30T09:21:12;16.20;;;5.47;;
19891;SDS011;10108;50.142;8.724;2023-09-30T09:23:39;15.23;;;5.43;;
19891;SDS011;10108;50.142;8.724;2023-09-30T09:26:06;16.52;;;5.82;;
19891;SDS011;10108;50.142;8.724;2023-09-30T09:28:33;19.35;;;5.90;;
19891;SDS011;10108;50.142;8.724;2023-09-30T09:31:02;12.63;;;5.90;;
19891;SDS011;10108;50.142;8.724;2023-09-30T09:33:34;15.45;;;5.68;;
19891;SDS011;10108;50.142;8.724;2023-09-30T09:36:02;14.63;;;5.57;;
19891;SDS011;10108;50.142;8.724;2023-09-30T09:38:40;16.60;;;5.43;;
19891;SDS011;10108;50.142;8.724;2023-09-30T09:41:09;11.65;;;5.35;;
19891;SDS011;10108;50.142;8.724;2023-09-30T09:43:40;18.92;;;5.68;;
19891;SDS011;10108;50.142;8.724;2023-09-30T09:46:07;13.70;;;5.75;;
19891;SDS011;10108;50.142;8.724;2023-09-30T09:48:35;16.58;;;6.10;;
19891;SDS011;10108;50.142;8.724;2023-09-30T09:51:02;17.98;;;5.95;;
19891;SDS011;10108;50.142;8.724;2023-09-30T09:53:29;13.10;;;5.10;;
19891;SDS011;10108;50.142;8.724;2023-09-30T09:55:57;15.70;;;5.72;;
19891;SDS011;10108;50.142;8.724;2023-09-30T09:58:26;17.25;;;6.30;;
19891;SDS011;10108;50.142;8.724;2023-09-30T10:00:59;21.77;;;6.22;;
19891;SDS011;10108;50.142;8.724;2023-09-30T10:03:26;12.20;;;6.10;;
19891;SDS011;10108;50.142;8.724;2023-09-30T10:05:53;13.90;;;5.43;;
19891;SDS011;10108;50.142;8.724;2023-09-30T10:08:20;12.38;;;5.32;;
19891;SDS011;10108;50.142;8.724;2023-09-30T10:10:49;14.77;;;5.35;;
19891;SDS011;10108;50.142;8.724;2023-09-30T10:16:00;15.50;;;5.30;;
19891;SDS011;10108;50.142;8.724;2023-09-30T10:18:27;12.40;;;5.43;;
19891;SDS011;10108;50.142;8.724;2023-09-30T10:20:53;14.07;;;6.15;;
19891;SDS011;10108;50.142;8.724;2023-09-30T10:23:33;15.43;;;6.00;;
19891;SDS011;10108;50.142;8.724;2023-09-30T10:28:40;18.30;;;5.53;;
19891;SDS011;10108;50.142;8.724;2023-09-30T10:31:15;15.80;;;5.50;;
19891;SDS011;10108;50.142;8.724;2023-09-30T10:36:38;16.73;;;5.82;;
19891;SDS011;10108;50.142;8.724;2023-09-30T10:39:05;16.65;;;5.65;;
19891;SDS011;10108;50.142;8.724;2023-09-30T10:46:53;17.60;;;5.85;;
19891;SDS011;10108;50.142;8.724;2023-09-30T10:51:54;11.82;;;5.20;;
19891;SDS011;10108;50.142;8.724;2023-09-30T10:54:24;12.25;;;5.35;;
19891;SDS011;10108;50.142;8.724;2023-09-30T10:56:51;14.85;;;5.45;;
19891;SDS011;10108;50.142;8.724;2023-09-30T10:59:24;12.10;;;5.35;;
19891;SDS011;10108;50.142;8.724;2023-09-30T11:01:50;14.60;;;5.88;;
19891;SDS011;10108;50.142;8.724;2023-09-30T11:04:19;16.05;;;5.60;;
19891;SDS011;10108;50.142;8.724;2023-09-30T11:06:46;12.93;;;4.88;;
19891;SDS011;10108;50.142;8.724;2023-09-30T11:09:16;12.10;;;4.85;;
19891;SDS011;10108;50.142;8.724;2023-09-30T11:11:44;10.07;;;4.25;;
19891;SDS011;10108;50.142;8.724;2023-09-30T11:14:29;12.98;;;5.20;;
19891;SDS011;10108;50.142;8.724;2023-09-30T11:16:57;12.40;;;4.70;;
19891;SDS011;10108;50.142;8.724;2023-09-30T11:19:24;14.30;;;4.85;;
19891;SDS011;10108;50.142;8.724;2023-09-30T11:21:52;9.73;;;4.38;;
19891;SDS011;10108;50.142;8.724;2023-09-30T11:24:20;11.85;;;5.35;;
19891;SDS011;10108;50.142;8.724;2023-09-30T11:26:47;14.25;;;5.07;;
19891;SDS011;10108;50.142;8.724;2023-09-30T11:29:14;15.88;;;5.15;;
19891;SDS011;10108;50.142;8.724;2023-09-30T11:31:45;11.05;;;4.35;;
19891;SDS011;10108;50.142;8.724;2023-09-30T11:34:12;15.52;;;5.63;;
19891;SDS011;10108;50.142;8.724;2023-09-30T11:36:39;11.35;;;5.15;;
19891;SDS011;10108;50.142;8.724;2023-09-30T11:39:10;11.50;;;5.10;;
19891;SDS011;10108;50.142;8.724;2023-09-30T11:41:39;10.55;;;4.93;;
19891;SDS011;10108;50.142;8.724;2023-09-30T11:44:07;14.48;;;4.90;;
19891;SDS011;10108;50.142;8.724;2023-09-30T11:46:48;13.65;;;4.88;;
19891;SDS011;10108;50.142;8.724;2023-09-30T11:51:52;10.35;;;4.50;;
19891;SDS011;10108;50.142;8.724;2023-09-30T11:54:18;11.68;;;4.35;;
19891;SDS011;10108;50.142;8.724;2023-09-30T11:56:46;9.25;;;4.88;;
19891;SDS011;10108;50.142;8.724;2023-09-30T11:59:13;10.05;;;4.70;;
19891;SDS011;10108;50.142;8.724;2023-09-30T12:01:39;12.50;;;4.97;;
19891;SDS011;10108;50.142;8.724;2023-09-30T12:04:06;14.15;;;5.07;;
19891;SDS011;10108;50.142;8.724;2023-09-30T12:06:34;11.75;;;4.95;;
19891;SDS011;10108;50.142;8.724;2023-09-30T12:09:03;10.77;;;5.30;;
19891;SDS011;10108;50.142;8.724;2023-09-30T12:11:34;11.30;;;5.25;;
19891;SDS011;10108;50.142;8.724;2023-09-30T12:14:01;11.05;;;5.28;;
19891;SDS011;10108;50.142;8.724;2023-09-30T12:16:27;10.52;;;5.07;;
19891;SDS011;10108;50.142;8.724;2023-09-30T12:18:54;12.38;;;5.07;;
19891;SDS011;10108;50.142;8.724;2023-09-30T12:21:20;13.10;;;5.00;;
19891;SDS011;10108;50.142;8.724;2023-09-30T12:23:48;10.05;;;4.90;;
19891;SDS011;10108;50.142;8.724;2023-09-30T12:26:17;12.38;;;5.28;;
19891;SDS011;10108;50.142;8.724;2023-09-30T12:28:45;12.75;;;5.05;;
19891;SDS011;10108;50.142;8.724;2023-09-30T12:31:13;12.07;;;5.20;;
19891;SDS011;10108;50.142;8.724;2023-09-30T12:33:41;11.63;;;5.13;;
19891;SDS011;10108;50.142;8.724;2023-09-30T12:36:07;10.18;;;4.85;;
19891;SDS011;10108;50.142;8.724;2023-09-30T12:38:33;10.98;;;5.07;;
19891;SDS011;10108;50.142;8.724;2023-09-30T12:41:00;12.38;;;4.88;;
19891;SDS011;10108;50.142;8.724;2023-09-30T12:43:26;15.15;;;5.30;;
19891;SDS011;10108;50.142;8.724;2023-09-30T12:45:53;13.07;;;4.97;;
19891;SDS011;10108;50.142;8.724;2023-09-30T12:48:19;9.55;;;4.90;;
19891;SDS011;10108;50.142;8.724;2023-09-30T12:50:45;12.82;;;4.82;;
19891;SDS011;10108;50.142;8.724;2023-09-30T12:53:13;10.63;;;4.72;;
19891;SDS011;10108;50.142;8.724;2023-09-30T12:55:40;9.25;;;4.47;;
19891;SDS011;10108;50.142;8.724;2023-09-30T12:58:07;17.60;;;4.50;;
19891;SDS011;10108;50.142;8.724;2023-09-30T13:00:34;9.43;;;4.40;;
19891;SDS011;10108;50.142;8.724;2023-09-30T13:03:01;15.23;;;4.55;;
19891;SDS011;10108;50.142;8.724;2023-09-30T13:05:28;12.73;;;4.32;;
19891;SDS011;10108;50.142;8.724;2023-09-30T13:07:57;11.00;;;4.72;;
19891;SDS011;10108;50.142;8.724;2023-09-30T13:10:24;12.20;;;4.80;;
19891;SDS011;10108;50.142;8.724;2023-09-30T13:12:51;11.98;;;4.40;;
19891;SDS011;10108;50.142;8.724;2023-09-30T13:15:19;10.95;;;4.65;;
19891;SDS011;10108;50.142;8.724;2023-09-30T13:17:47;8.13;;;4.00;;
19891;SDS011;10108;50.142;8.724;2023-09-30T13:20:13;9.65;;;4.15;;
19891;SDS011;10108;50.142;8.724;2023-09-30T13:22:40;10.55;;;3.90;;
19891;SDS011;10108;50.142;8.724;2023-09-30T13:25:06;12.80;;;4.07;;
19891;SDS011;10108;50.142;8.724;2023-09-30T13:27:33;10.90;;;4.10;;
19891;SDS011;10108;50.142;8.724;2023-09-30T13:30:00;11.18;;;4.50;;
19891;SDS011;10108;50.142;8.724;2023-09-30T13:32:27;9.35;;;3.90;;
19891;SDS011;10108;50.142;8.724;2023-09-30T13:34:53;7.93;;;3.70;;
19891;SDS011;10108;50.142;8.724;2023-09-30T13:37:20;10.48;;;4.13;;
19891;SDS011;10108;50.142;8.724;2023-09-30T13:39:47;9.02;;;3.90;;
19891;SDS011;10108;50.142;8.724;2023-09-30T13:42:15;9.25;;;4.18;;
19891;SDS011;10108;50.142;8.724;2023-09-30T13:44:43;7.55;;;3.70;;
19891;SDS011;10108;50.142;8.724;2023-09-30T13:47:12;11.07;;;4.65;;
19891;SDS011;10108;50.142;8.724;2023-09-30T13:49:39;7.85;;;3.85;;
19891;SDS011;10108;50.142;8.724;2023-09-30T13:52:05;12.43;;;3.95;;
19891;SDS011;10108;50.142;8.724;2023-09-30T13:54:32;7.47;;;3.70;;
19891;SDS011;10108;50.142;8.724;2023-09-30T13:56:58;8.65;;;3.72;;
19891;SDS011;10108;50.142;8.724;2023-09-30T13:59:25;10.30;;;3.83;;
19891;SDS011;10108;50.142;8.724;2023-09-30T14:01:53;8.05;;;3.80;;
19891;SDS011;10108;50.142;8.724;2023-09-30T14:04:19;9.98;;;3.85;;
19891;SDS011;10108;50.142;8.724;2023-09-30T14:06:46;7.25;;;3.70;;
19891;SDS011;10108;50.142;8.724;2023-09-30T14:09:13;8.85;;;3.97;;
19891;SDS011;10108;50.142;8.724;2023-09-30T14:11:40;7.55;;;3.67;;
19891;SDS011;10108;50.142;8.724;2023-09-30T14:14:07;8.88;;;3.58;;
19891;SDS011;10108;50.142;8.724;2023-09-30T14:16:36;7.60;;;4.00;;
19891;SDS011;10108;50.142;8.724;2023-09-30T14:19:03;8.85;;;4.00;;
19891;SDS011;10108;50.142;8.724;2023-09-30T14:21:29;9.43;;;4.22;;
19891;SDS011;10108;50.142;8.724;2023-09-30T14:23:57;7.07;;;3.78;;
19891;SDS011;10108;50.142;8.724;2023-09-30T14:26:24;6.90;;;3.47;;
19891;SDS011;10108;50.142;8.724;2023-09-30T14:28:50;8.20;;;3.60;;
19891;SDS011;10108;50.142;8.724;2023-09-30T14:31:17;9.30;;;4.20;;
19891;SDS011;10108;50.142;8.724;2023-09-30T14:33:43;8.30;;;4.00;;
19891;SDS011;10108;50.142;8.724;2023-09-30T14:36:10;10.95;;;4.45;;
19891;SDS011;10108;50.142;8.724;2023-09-30T14:38:36;7.43;;;4.07;;
19891;SDS011;10108;50.142;8.724;2023-09-30T14:41:06;7.93;;;3.92;;
19891;SDS011;10108;50.142;8.724;2023-09-30T14:43:34;11.70;;;4.25;;
19891;SDS011;10108;50.142;8.724;2023-09-30T14:46:01;11.20;;;4.93;;
19891;SDS011;10108;50.142;8.724;2023-09-30T14:48:28;12.13;;;4.85;;
19891;SDS011;10108;50.142;8.724;2023-09-30T14:50:55;10.43;;;4.53;;
19891;SDS011;10108;50.142;8.724;2023-09-30T14:53:22;13.00;;;4.80;;
19891;SDS011;10108;50.142;8.724;2023-09-30T14:55:49;13.30;;;4.95;;
19891;SDS011;10108;50.142;8.724;2023-09-30T14:58:15;11.38;;;4.85;;
19891;SDS011;10108;50.142;8.724;2023-09-30T15:00:42;14.18;;;5.35;;